FWI41D TFFR-LFPO
Flight info
| Callsign | FWI41D |
|---|---|
| Flight time | N/A |
| Altitude | 38000 |
| Route | CAIRN2F CAIRN DCT CITRS DCT 22N055W 27N050W 31N045W/M084F390 34N040W 40N030W 44N020W DCT SIVIR/M084F400 UN460 RIVAK/N0481F400 DCT AKEMO DCT TERPO DCT ANG/N0483F410 DCT DEKJA/N0430F280 UN482 NIMER DCT CAD |
| Aircraft | A35K/H-SDE2E3GHIJ1J3J4J5LM1ORWXY/LB1D1 |
Departure
| Time | 2026-04-27 21:08 |
|---|---|
| Airport | Maryse Condé International Airport (TFFR) |
Arrival
| Time | N/A |
|---|---|
| Airport | Paris-Orly Airport (LFPO) |
| Time | Latitude | Longitude | Altitude | Speed | Heading |
|---|---|---|---|---|---|
| 2026-04-27 18:27 | 16.26896 | -61.52613 | 29 ft | 0 kts | 348° |
| 2026-04-27 20:55 | 16.26889 | -61.52611 | 28 ft | 2 kts | 348° |
| 2026-04-27 20:55 | 16.26873 | -61.52608 | 28 ft | 2 kts | 348° |
| 2026-04-27 20:55 | 16.26856 | -61.52604 | 28 ft | 2 kts | 348° |
| 2026-04-27 20:55 | 16.26840 | -61.52601 | 29 ft | 2 kts | 347° |
| 2026-04-27 20:56 | 16.26824 | -61.52595 | 29 ft | 2 kts | 331° |
| 2026-04-27 20:56 | 16.26810 | -61.52586 | 28 ft | 2 kts | 332° |
| 2026-04-27 20:56 | 16.26796 | -61.52577 | 27 ft | 2 kts | 292° |
| 2026-04-27 20:56 | 16.26793 | -61.52562 | 27 ft | 1 kts | 281° |
| 2026-04-27 20:57 | 16.26792 | -61.52560 | 28 ft | 0 kts | 281° |
| 2026-04-27 21:00 | 16.26793 | -61.52563 | 27 ft | 1 kts | 281° |
| 2026-04-27 21:00 | 16.26796 | -61.52581 | 28 ft | 3 kts | 281° |
| 2026-04-27 21:00 | 16.26802 | -61.52613 | 29 ft | 5 kts | 281° |
| 2026-04-27 21:01 | 16.26810 | -61.52659 | 29 ft | 7 kts | 281° |
| 2026-04-27 21:01 | 16.26821 | -61.52718 | 29 ft | 9 kts | 281° |
| 2026-04-27 21:01 | 16.26835 | -61.52790 | 29 ft | 11 kts | 281° |
| 2026-04-27 21:01 | 16.26849 | -61.52875 | 29 ft | 12 kts | 272° |
| 2026-04-27 21:02 | 16.26800 | -61.52934 | 29 ft | 12 kts | 205° |
| 2026-04-27 21:02 | 16.26718 | -61.52954 | 29 ft | 13 kts | 191° |
| 2026-04-27 21:02 | 16.26629 | -61.52972 | 29 ft | 13 kts | 191° |
| 2026-04-27 21:02 | 16.26537 | -61.52995 | 30 ft | 13 kts | 206° |
| 2026-04-27 21:03 | 16.26513 | -61.53064 | 32 ft | 10 kts | 280° |
| 2026-04-27 21:03 | 16.26527 | -61.53141 | 32 ft | 12 kts | 280° |
| 2026-04-27 21:03 | 16.26542 | -61.53231 | 31 ft | 14 kts | 280° |
| 2026-04-27 21:03 | 16.26561 | -61.53337 | 31 ft | 16 kts | 280° |
| 2026-04-27 21:04 | 16.26581 | -61.53455 | 32 ft | 17 kts | 280° |
| 2026-04-27 21:04 | 16.26603 | -61.53576 | 33 ft | 18 kts | 281° |
| 2026-04-27 21:04 | 16.26629 | -61.53711 | 30 ft | 21 kts | 281° |
| 2026-04-27 21:04 | 16.26659 | -61.53873 | 28 ft | 24 kts | 281° |
| 2026-04-27 21:05 | 16.26693 | -61.54052 | 24 ft | 26 kts | 281° |
| 2026-04-27 21:05 | 16.26730 | -61.54247 | 19 ft | 25 kts | 281° |
| 2026-04-27 21:05 | 16.26737 | -61.54284 | 18 ft | 2 kts | 281° |
| 2026-04-27 21:05 | 16.26743 | -61.54316 | 18 ft | 7 kts | 278° |
| 2026-04-27 21:06 | 16.26725 | -61.54365 | 17 ft | 8 kts | 239° |
| 2026-04-27 21:06 | 16.26733 | -61.54391 | 16 ft | 1 kts | 332° |
| 2026-04-27 21:06 | 16.26737 | -61.54391 | 18 ft | 1 kts | 352° |
| 2026-04-27 21:06 | 16.26747 | -61.54387 | 18 ft | 3 kts | 23° |
| 2026-04-27 21:07 | 16.26751 | -61.54364 | 17 ft | 4 kts | 92° |
| 2026-04-27 21:07 | 16.26749 | -61.54357 | 18 ft | 0 kts | 101° |
| 2026-04-27 21:07 | 16.26749 | -61.54356 | 17 ft | 2 kts | 101° |
| 2026-04-27 21:07 | 16.26714 | -61.54161 | 20 ft | 65 kts | 101° |
| 2026-04-27 21:08 | 16.26578 | -61.53427 | 31 ft | 140 kts | 101° |
| 2026-04-27 21:08 | 16.26374 | -61.52267 | 431 ft | 173 kts | 103° |
| 2026-04-27 21:08 | 16.26159 | -61.51066 | 1488 ft | 166 kts | 103° |
| 2026-04-27 21:08 | 16.25929 | -61.49866 | 2255 ft | 174 kts | 103° |
| 2026-04-27 21:09 | 16.25673 | -61.48572 | 2532 ft | 191 kts | 102° |
| 2026-04-27 21:09 | 16.25407 | -61.47139 | 2733 ft | 212 kts | 101° |
| 2026-04-27 21:09 | 16.25112 | -61.45549 | 2939 ft | 234 kts | 102° |
| 2026-04-27 21:09 | 16.24791 | -61.43851 | 3410 ft | 244 kts | 102° |
| 2026-04-27 21:10 | 16.24598 | -61.42076 | 3936 ft | 252 kts | 91° |
| 2026-04-27 21:10 | 16.24866 | -61.40258 | 4531 ft | 258 kts | 74° |
| 2026-04-27 21:10 | 16.25680 | -61.38582 | 5147 ft | 262 kts | 56° |
| 2026-04-27 21:10 | 16.26849 | -61.37099 | 5737 ft | 266 kts | 50° |
| 2026-04-27 21:11 | 16.28080 | -61.35674 | 6330 ft | 269 kts | 49° |
| 2026-04-27 21:11 | 16.29328 | -61.34224 | 6875 ft | 272 kts | 49° |
| 2026-04-27 21:11 | 16.30600 | -61.32731 | 7375 ft | 277 kts | 49° |
| 2026-04-27 21:11 | 16.31892 | -61.31202 | 7890 ft | 282 kts | 49° |
| 2026-04-27 21:12 | 16.33192 | -61.29657 | 8427 ft | 286 kts | 49° |
| 2026-04-27 21:12 | 16.34510 | -61.28088 | 8965 ft | 290 kts | 49° |
| 2026-04-27 21:12 | 16.35845 | -61.26495 | 9502 ft | 294 kts | 49° |
| 2026-04-27 21:12 | 16.37199 | -61.24879 | 10021 ft | 298 kts | 49° |
| 2026-04-27 21:13 | 16.38579 | -61.23231 | 10351 ft | 309 kts | 49° |
| 2026-04-27 21:13 | 16.40009 | -61.21522 | 10554 ft | 323 kts | 49° |
| 2026-04-27 21:13 | 16.41513 | -61.19725 | 10778 ft | 336 kts | 49° |
| 2026-04-27 21:13 | 16.43080 | -61.17852 | 10995 ft | 349 kts | 49° |
| 2026-04-27 21:14 | 16.44705 | -61.15908 | 11214 ft | 361 kts | 49° |
| 2026-04-27 21:14 | 16.46365 | -61.13921 | 11544 ft | 368 kts | 48° |
| 2026-04-27 21:14 | 16.48056 | -61.11896 | 11944 ft | 372 kts | 48° |
| 2026-04-27 21:14 | 16.49772 | -61.09840 | 12377 ft | 376 kts | 48° |
| 2026-04-27 21:15 | 16.51493 | -61.07779 | 12792 ft | 380 kts | 48° |
| 2026-04-27 21:15 | 16.52669 | -61.06372 | 13092 ft | 382 kts | 48° |
| 2026-04-27 21:15 | 16.54394 | -61.04304 | 13518 ft | 385 kts | 48° |
| 2026-04-27 21:15 | 16.56152 | -61.02196 | 13917 ft | 389 kts | 48° |
| 2026-04-27 21:16 | 16.57951 | -61.00038 | 14303 ft | 391 kts | 48° |
| 2026-04-27 21:16 | 16.59738 | -60.97895 | 14680 ft | 394 kts | 48° |
| 2026-04-27 21:16 | 16.61546 | -60.95726 | 15064 ft | 397 kts | 49° |
| 2026-04-27 21:16 | 16.63362 | -60.93547 | 15438 ft | 400 kts | 49° |
| 2026-04-27 21:17 | 16.65191 | -60.91350 | 15829 ft | 402 kts | 49° |
| 2026-04-27 21:17 | 16.67028 | -60.89144 | 16230 ft | 405 kts | 49° |
| 2026-04-27 21:17 | 16.68878 | -60.86921 | 16630 ft | 407 kts | 49° |
| 2026-04-27 21:17 | 16.70746 | -60.84676 | 17014 ft | 409 kts | 49° |
| 2026-04-27 21:18 | 16.74141 | -60.80593 | 17718 ft | 414 kts | 49° |
| 2026-04-27 21:18 | 16.81788 | -60.71389 | 19028 ft | 426 kts | 49° |
| 2026-04-27 21:18 | 16.89540 | -60.62046 | 20230 ft | 437 kts | 49° |
| 2026-04-27 21:18 | 16.97125 | -60.51943 | 21423 ft | 446 kts | 55° |
| 2026-04-27 21:19 | 17.04369 | -60.41210 | 22566 ft | 455 kts | 55° |
| 2026-04-27 21:19 | 17.11836 | -60.30274 | 23606 ft | 466 kts | 55° |
| 2026-04-27 21:19 | 17.19408 | -60.19191 | 24540 ft | 472 kts | 55° |
| 2026-04-27 21:20 | 17.34756 | -59.96658 | 26371 ft | 483 kts | 54° |
| 2026-04-27 21:20 | 17.42600 | -59.85113 | 27262 ft | 489 kts | 54° |
| 2026-04-27 21:20 | 17.50548 | -59.73394 | 28126 ft | 496 kts | 54° |
| 2026-04-27 21:20 | 17.58523 | -59.61615 | 29029 ft | 502 kts | 54° |
| 2026-04-27 21:21 | 17.66682 | -59.49543 | 29927 ft | 509 kts | 54° |
| 2026-04-27 21:21 | 17.74925 | -59.37324 | 30731 ft | 517 kts | 54° |
| 2026-04-27 21:21 | 17.83193 | -59.25047 | 31495 ft | 524 kts | 54° |
| 2026-04-27 21:21 | 17.91610 | -59.12524 | 32248 ft | 531 kts | 54° |
| 2026-04-27 21:22 | 18.00583 | -58.99667 | 32838 ft | 536 kts | 45° |
| 2026-04-27 21:22 | 18.11378 | -58.88930 | 33895 ft | 534 kts | 40° |
| 2026-04-27 21:22 | 18.21847 | -58.78888 | 34947 ft | 531 kts | 40° |
| 2026-04-27 21:22 | 18.27259 | -58.73647 | 35485 ft | 529 kts | 40° |
| 2026-04-27 21:23 | 18.32644 | -58.68422 | 36046 ft | 527 kts | 40° |
| 2026-04-27 21:23 | 18.38035 | -58.63186 | 36544 ft | 526 kts | 40° |
| 2026-04-27 21:23 | 18.43362 | -58.58010 | 37017 ft | 526 kts | 40° |
| 2026-04-27 21:23 | 18.48725 | -58.52796 | 37083 ft | 529 kts | 40° |
| 2026-04-27 21:24 | 18.59617 | -58.42189 | 37073 ft | 530 kts | 40° |
| 2026-04-27 21:24 | 18.74519 | -58.27648 | 37081 ft | 545 kts | 40° |
| 2026-04-27 21:25 | 18.96878 | -58.05755 | 37088 ft | 546 kts | 40° |
| 2026-04-27 21:25 | 19.19043 | -57.83972 | 37095 ft | 547 kts | 40° |
| 2026-04-27 21:26 | 19.41446 | -57.61869 | 37105 ft | 548 kts | 40° |
| 2026-04-27 21:26 | 19.63645 | -57.39881 | 37096 ft | 550 kts | 40° |
| 2026-04-27 21:27 | 19.86011 | -57.17638 | 37098 ft | 551 kts | 40° |
| 2026-04-27 21:27 | 20.08348 | -56.95335 | 37104 ft | 551 kts | 40° |
| 2026-04-27 21:28 | 20.30727 | -56.72896 | 37307 ft | 552 kts | 40° |
| 2026-04-27 21:28 | 20.41909 | -56.61649 | 37556 ft | 551 kts | 40° |
| 2026-04-27 21:28 | 20.52996 | -56.50475 | 37750 ft | 550 kts | 40° |
| 2026-04-27 21:29 | 20.64163 | -56.39197 | 37976 ft | 550 kts | 40° |
| 2026-04-27 21:29 | 20.75264 | -56.27960 | 38110 ft | 548 kts | 40° |
| 2026-04-27 21:29 | 20.97321 | -56.05565 | 38114 ft | 547 kts | 40° |
| 2026-04-27 21:30 | 21.19308 | -55.83144 | 38114 ft | 549 kts | 40° |
| 2026-04-27 21:30 | 21.41462 | -55.60456 | 38119 ft | 551 kts | 40° |
| 2026-04-27 21:31 | 21.63599 | -55.37683 | 38109 ft | 552 kts | 40° |
| 2026-04-27 21:31 | 21.85758 | -55.14786 | 38118 ft | 553 kts | 40° |
| 2026-04-27 21:32 | 22.08256 | -54.92010 | 38126 ft | 554 kts | 37° |
| 2026-04-27 21:32 | 22.31523 | -54.70067 | 38130 ft | 557 kts | 37° |
| 2026-04-27 21:33 | 22.54690 | -54.47931 | 38136 ft | 559 kts | 37° |
| 2026-04-27 21:33 | 22.78047 | -54.25514 | 38145 ft | 561 kts | 37° |
| 2026-04-27 21:34 | 23.01436 | -54.02959 | 38143 ft | 562 kts | 37° |
| 2026-04-27 21:34 | 23.24886 | -53.80234 | 38150 ft | 564 kts | 37° |
| 2026-04-27 21:35 | 23.48279 | -53.57453 | 38161 ft | 564 kts | 36° |
| 2026-04-27 21:35 | 23.71505 | -53.34722 | 38161 ft | 565 kts | 36° |
| 2026-04-27 21:36 | 23.94999 | -53.11615 | 38164 ft | 565 kts | 36° |
| 2026-04-27 21:36 | 24.18027 | -52.88849 | 38169 ft | 564 kts | 36° |